createdAt,value
2023-04-15T00:00:58.781Z,6.13
2023-04-15T00:03:25.973Z,6.32
2023-04-15T00:05:52.961Z,6.38
2023-04-15T00:08:20.005Z,7.20
2023-04-15T00:10:46.870Z,8.10
2023-04-15T00:13:13.774Z,6.25
2023-04-15T00:15:41.394Z,6.30
2023-04-15T00:18:08.410Z,7.22
2023-04-15T00:20:35.849Z,6.97
2023-04-15T00:23:03.318Z,6.60
2023-04-15T00:25:30.066Z,7.50
2023-04-15T00:27:56.794Z,6.63
2023-04-15T00:30:23.684Z,8.50
2023-04-15T00:32:50.585Z,8.70
2023-04-15T00:35:17.486Z,9.05
2023-04-15T00:37:46.005Z,8.20
2023-04-15T00:40:13.819Z,7.70
2023-04-15T00:42:41.139Z,6.50
2023-04-15T00:45:08.523Z,8.13
2023-04-15T00:47:36.610Z,9.02
2023-04-15T00:50:04.034Z,7.68
2023-04-15T00:52:31.243Z,7.97
2023-04-15T00:54:58.150Z,7.10
2023-04-15T00:57:25.072Z,7.90
2023-04-15T00:59:53.344Z,7.75
2023-04-15T01:02:20.476Z,6.93
2023-04-15T01:04:47.392Z,7.10
2023-04-15T01:07:14.569Z,6.30
2023-04-15T01:09:42.266Z,6.50
2023-04-15T01:12:14.203Z,9.25
2023-04-15T01:14:41.428Z,9.00
2023-04-15T01:17:08.211Z,9.18
2023-04-15T01:19:36.976Z,8.18
2023-04-15T01:22:04.322Z,8.50
2023-04-15T01:24:32.710Z,8.13
2023-04-15T01:26:59.649Z,8.73
2023-04-15T01:29:26.541Z,8.82
2023-04-15T01:31:55.170Z,8.40
2023-04-15T01:34:22.327Z,7.40
2023-04-15T01:36:49.372Z,8.18
2023-04-15T01:39:16.197Z,9.32
2023-04-15T01:41:42.980Z,8.18
2023-04-15T01:44:09.905Z,8.20
2023-04-15T01:46:36.830Z,7.67
2023-04-15T01:49:03.729Z,6.93
2023-04-15T01:51:30.751Z,8.35
2023-04-15T01:53:57.592Z,7.03
2023-04-15T01:56:24.513Z,7.18
2023-04-15T01:58:51.655Z,6.90
2023-04-15T02:01:18.789Z,6.43
2023-04-15T02:03:46.273Z,6.40
2023-04-15T02:06:13.333Z,6.72
2023-04-15T02:08:40.200Z,7.68
2023-04-15T02:11:07.039Z,6.77
2023-04-15T02:13:33.961Z,7.80
2023-04-15T02:16:00.757Z,6.60
2023-04-15T02:18:27.557Z,7.00
2023-04-15T02:20:54.611Z,6.88
2023-04-15T02:23:21.423Z,8.37
2023-04-15T02:25:53.754Z,6.60
2023-04-15T02:28:22.095Z,8.45
2023-04-15T02:30:49.715Z,8.95
2023-04-15T02:33:16.599Z,8.27
2023-04-15T02:35:43.459Z,6.93
2023-04-15T02:38:10.268Z,8.10
2023-04-15T02:40:37.370Z,8.02
2023-04-15T02:43:04.202Z,6.72
2023-04-15T02:45:31.039Z,8.68
2023-04-15T02:47:57.942Z,7.73
2023-04-15T02:50:24.920Z,7.45
2023-04-15T02:52:51.845Z,7.50
2023-04-15T02:55:18.725Z,7.10
2023-04-15T02:57:45.554Z,7.57
2023-04-15T03:00:13.003Z,7.37
2023-04-15T03:02:40.395Z,7.18
2023-04-15T03:05:08.021Z,6.90
2023-04-15T03:07:34.883Z,8.00
2023-04-15T03:10:01.689Z,10.65
2023-04-15T03:12:28.652Z,9.70
2023-04-15T03:14:55.435Z,10.20
2023-04-15T03:17:22.286Z,10.65
2023-04-15T03:19:49.215Z,10.13
2023-04-15T03:22:16.018Z,10.60
2023-04-15T03:24:42.922Z,9.33
2023-04-15T03:27:09.875Z,10.88
2023-04-15T03:29:36.767Z,8.70
2023-04-15T03:32:03.776Z,7.88
2023-04-15T03:34:30.673Z,9.40
2023-04-15T03:36:57.437Z,9.83
2023-04-15T03:39:24.240Z,10.40
2023-04-15T03:41:51.095Z,10.60
2023-04-15T03:44:17.916Z,10.85
2023-04-15T03:46:44.840Z,10.52
2023-04-15T03:49:11.835Z,9.10
2023-04-15T03:51:38.654Z,9.80
2023-04-15T03:54:05.480Z,11.10
2023-04-15T03:56:32.396Z,10.85
2023-04-15T03:58:59.266Z,11.07
2023-04-15T04:01:26.253Z,10.57
2023-04-15T04:03:53.278Z,8.82
2023-04-15T04:06:20.355Z,10.70
2023-04-15T04:08:47.142Z,10.95
2023-04-15T04:11:14.025Z,9.75
2023-04-15T04:13:41.020Z,9.37
2023-04-15T04:16:07.927Z,9.57
2023-04-15T04:18:34.991Z,10.98
2023-04-15T04:21:02.298Z,10.52
2023-04-15T04:23:29.362Z,9.32
2023-04-15T04:25:56.239Z,8.33
2023-04-15T04:28:23.076Z,10.52
2023-04-15T04:30:49.961Z,11.52
2023-04-15T04:33:16.892Z,12.00
2023-04-15T04:35:43.614Z,12.75
2023-04-15T04:38:10.434Z,13.20
2023-04-15T04:40:37.431Z,12.02
2023-04-15T04:43:04.260Z,12.05
2023-04-15T04:45:31.157Z,12.40
2023-04-15T04:47:58.049Z,12.57
2023-04-15T04:50:24.896Z,12.27
2023-04-15T04:52:51.674Z,13.70
2023-04-15T04:55:18.653Z,13.93
2023-04-15T04:57:45.677Z,14.07
2023-04-15T05:00:12.981Z,13.80
2023-04-15T05:02:40.029Z,14.30
2023-04-15T05:05:07.379Z,14.35
2023-04-15T05:07:34.311Z,13.88
2023-04-15T05:10:01.419Z,13.70
2023-04-15T05:12:28.321Z,13.30
2023-04-15T05:14:55.155Z,12.80
2023-04-15T05:17:22.751Z,13.27
2023-04-15T05:19:49.623Z,12.95
2023-04-15T05:22:16.501Z,12.27
2023-04-15T05:24:43.425Z,10.65
2023-04-15T05:27:10.200Z,11.43
2023-04-15T05:29:37.024Z,11.43
2023-04-15T05:32:04.034Z,12.07
2023-04-15T05:34:30.870Z,11.93
2023-04-15T05:36:57.769Z,13.23
2023-04-15T05:39:24.567Z,13.13
2023-04-15T05:41:51.408Z,12.35
2023-04-15T05:44:18.254Z,13.35
2023-04-15T05:46:45.123Z,14.00
2023-04-15T05:49:12.010Z,13.68
2023-04-15T05:51:38.787Z,11.83
2023-04-15T05:54:05.638Z,12.30
2023-04-15T05:56:32.463Z,12.65
2023-04-15T05:58:59.662Z,11.60
2023-04-15T06:01:26.716Z,12.77
2023-04-15T06:03:53.752Z,13.10
2023-04-15T06:06:20.706Z,12.52
2023-04-15T06:08:47.732Z,12.45
2023-04-15T06:11:14.905Z,11.52
2023-04-15T06:13:41.764Z,12.25
2023-04-15T06:16:08.786Z,12.17
2023-04-15T06:18:35.725Z,12.05
2023-04-15T06:21:02.585Z,12.20
2023-04-15T06:23:29.715Z,12.07
2023-04-15T06:25:56.512Z,11.85
2023-04-15T06:28:23.389Z,11.40
2023-04-15T06:30:50.376Z,12.88
2023-04-15T06:33:17.294Z,13.07
2023-04-15T06:35:44.134Z,13.68
2023-04-15T06:38:10.982Z,13.10
2023-04-15T06:40:37.898Z,12.63
2023-04-15T06:43:08.771Z,13.05
2023-04-15T06:45:35.655Z,12.85
2023-04-15T06:48:02.446Z,12.55
2023-04-15T06:50:29.416Z,11.70
2023-04-15T06:52:59.242Z,11.03
2023-04-15T06:55:26.174Z,11.80
2023-04-15T06:57:52.993Z,11.75
2023-04-15T07:00:19.985Z,12.10
2023-04-15T07:02:47.044Z,11.82
2023-04-15T07:05:14.860Z,11.00
2023-04-15T07:07:41.904Z,11.50
2023-04-15T07:10:09.278Z,10.65
2023-04-15T07:12:36.097Z,9.07
2023-04-15T07:15:03.287Z,9.30
2023-04-15T07:17:30.256Z,9.87
2023-04-15T07:19:57.218Z,10.23
2023-04-15T07:22:24.297Z,9.80
2023-04-15T07:24:53.763Z,9.65
2023-04-15T07:27:20.627Z,6.75
2023-04-15T07:29:47.706Z,6.97
2023-04-15T07:32:14.576Z,7.45
2023-04-15T07:34:41.461Z,6.38
2023-04-15T07:37:08.492Z,7.85
2023-04-15T07:39:35.413Z,8.32
2023-04-15T07:42:02.545Z,8.17
2023-04-15T07:44:29.563Z,7.35
2023-04-15T07:46:57.468Z,8.48
2023-04-15T07:49:24.487Z,7.88
2023-04-15T07:51:51.334Z,6.60
2023-04-15T07:54:18.183Z,6.63
2023-04-15T07:56:45.043Z,6.15
2023-04-15T07:59:11.898Z,6.20
2023-04-15T08:01:39.843Z,6.97
2023-04-15T08:04:06.874Z,5.30
2023-04-15T08:06:33.852Z,5.90
2023-04-15T08:09:01.015Z,5.57
2023-04-15T08:11:29.649Z,5.60
2023-04-15T08:13:56.536Z,6.07
2023-04-15T08:16:25.224Z,6.20
2023-04-15T08:18:55.385Z,5.33
2023-04-15T08:21:22.426Z,5.55
2023-04-15T08:23:51.132Z,6.20
2023-04-15T08:26:18.931Z,6.28
2023-04-15T08:28:46.662Z,6.65
2023-04-15T08:31:15.628Z,7.30
2023-04-15T08:33:42.716Z,6.78
2023-04-15T08:36:09.753Z,5.60
2023-04-15T08:38:36.669Z,6.43
2023-04-15T08:41:12.091Z,6.22
2023-04-15T08:43:59.193Z,6.00
2023-04-15T08:46:26.966Z,6.22
2023-04-15T08:48:57.667Z,6.20
2023-04-15T08:51:25.119Z,5.00
2023-04-15T08:53:52.401Z,5.80
2023-04-15T08:56:19.748Z,6.20
2023-04-15T08:58:46.869Z,5.68
2023-04-15T09:01:13.973Z,6.07
2023-04-15T09:03:41.962Z,6.20
2023-04-15T09:06:09.023Z,6.18
2023-04-15T09:08:35.958Z,5.80
2023-04-15T09:11:03.965Z,5.22
2023-04-15T09:13:31.148Z,4.43
2023-04-15T09:15:58.172Z,4.70
2023-04-15T09:18:29.905Z,5.00
2023-04-15T09:20:56.935Z,5.60
2023-04-15T09:23:24.021Z,4.90
2023-04-15T09:25:51.170Z,5.13
2023-04-15T09:28:24.735Z,4.90
2023-04-15T09:30:53.343Z,4.95
2023-04-15T09:33:20.277Z,4.03
2023-04-15T09:36:04.804Z,4.00
2023-04-15T09:38:35.276Z,3.40
2023-04-15T09:41:02.289Z,3.53
2023-04-15T09:43:47.154Z,2.90
2023-04-15T09:46:14.033Z,3.03
2023-04-15T09:48:40.982Z,3.65
2023-04-15T09:51:08.133Z,3.60
2023-04-15T09:53:38.878Z,4.15
2023-04-15T09:56:05.979Z,4.15
2023-04-15T09:58:35.700Z,3.97
2023-04-15T10:01:05.770Z,3.75
2023-04-15T10:03:34.769Z,3.65
2023-04-15T10:06:02.673Z,3.10
2023-04-15T10:08:32.050Z,3.55
2023-04-15T10:11:00.336Z,3.20
2023-04-15T10:13:31.427Z,3.70
2023-04-15T10:16:06.574Z,4.10
2023-04-15T10:18:37.996Z,4.55
2023-04-15T10:21:06.000Z,4.40
2023-04-15T10:23:33.847Z,4.00
2023-04-15T10:26:01.401Z,3.90
2023-04-15T10:28:28.492Z,3.97
2023-04-15T10:30:56.685Z,4.13
2023-04-15T10:33:25.393Z,4.10
2023-04-15T10:35:54.514Z,4.63
2023-04-15T10:38:33.934Z,4.60
2023-04-15T10:41:14.149Z,4.30
2023-04-15T10:43:56.644Z,4.03
2023-04-15T10:46:40.609Z,4.03
2023-04-15T10:49:12.379Z,3.80
2023-04-15T10:51:41.317Z,4.13
2023-04-15T10:54:26.371Z,3.67
2023-04-15T10:57:09.027Z,3.50
2023-04-15T10:59:59.592Z,3.72
2023-04-15T11:02:40.765Z,3.00
2023-04-15T11:05:08.333Z,3.13
2023-04-15T11:07:47.356Z,3.22
2023-04-15T11:10:14.232Z,3.10
2023-04-15T11:12:42.111Z,3.05
2023-04-15T11:15:41.622Z,2.90
2023-04-15T11:18:22.697Z,3.20
2023-04-15T11:20:54.932Z,2.80
2023-04-15T11:23:41.854Z,3.10
2023-04-15T11:26:10.724Z,3.38
2023-04-15T11:28:39.317Z,3.00
2023-04-15T11:31:09.845Z,3.10
2023-04-15T11:33:37.001Z,2.78
2023-04-15T11:36:04.266Z,3.10
2023-04-15T11:38:31.208Z,3.20
2023-04-15T11:40:58.917Z,3.67
2023-04-15T11:43:25.780Z,3.40
2023-04-15T11:45:54.152Z,3.25
2023-04-15T11:48:24.183Z,3.05
2023-04-15T11:50:56.460Z,2.97
2023-04-15T11:53:24.192Z,2.90
2023-04-15T11:55:53.342Z,2.75
2023-04-15T11:58:25.293Z,2.90
2023-04-15T12:00:54.696Z,2.75
2023-04-15T12:03:39.618Z,2.80
2023-04-15T12:06:07.870Z,2.80
2023-04-15T12:08:56.497Z,3.33
2023-04-15T12:11:51.404Z,2.83
2023-04-15T12:14:29.399Z,3.03
2023-04-15T12:17:04.422Z,3.05
2023-04-15T12:19:42.368Z,2.90
2023-04-15T12:22:11.761Z,2.90
2023-04-15T12:24:39.642Z,2.42
2023-04-15T12:27:12.118Z,2.80
2023-04-15T12:29:40.657Z,2.50
2023-04-15T12:32:16.343Z,2.40
2023-04-15T12:34:53.638Z,2.90
2023-04-15T12:37:21.078Z,2.67
2023-04-15T12:39:49.548Z,2.63
2023-04-15T12:42:17.597Z,2.60
2023-04-15T12:44:45.063Z,2.20
2023-04-15T12:47:12.763Z,2.30
2023-04-15T12:49:40.026Z,2.50
2023-04-15T12:52:07.380Z,2.05
2023-04-15T12:54:34.301Z,2.63
2023-04-15T12:57:01.248Z,2.20
2023-04-15T12:59:29.027Z,1.90
2023-04-15T13:01:56.023Z,2.30
2023-04-15T13:04:23.211Z,2.30
2023-04-15T13:06:50.683Z,2.60
2023-04-15T13:09:17.768Z,2.40
2023-04-15T13:11:44.796Z,2.60
2023-04-15T13:14:11.927Z,2.10
2023-04-15T13:16:39.013Z,2.28
2023-04-15T13:19:06.019Z,2.55
2023-04-15T13:21:33.289Z,2.40
2023-04-15T13:24:00.201Z,2.42
2023-04-15T13:26:27.074Z,2.40
2023-04-15T13:28:54.088Z,2.40
2023-04-15T13:31:20.951Z,2.30
2023-04-15T13:33:47.909Z,2.50
2023-04-15T13:36:14.808Z,2.35
2023-04-15T13:38:41.716Z,2.70
2023-04-15T13:41:08.578Z,2.78
2023-04-15T13:43:36.176Z,2.45
2023-04-15T13:46:03.307Z,2.40
2023-04-15T13:48:30.238Z,2.90
2023-04-15T13:50:57.295Z,2.65
2023-04-15T13:53:37.672Z,2.58
2023-04-15T13:56:07.142Z,2.35
2023-04-15T13:58:34.236Z,2.40
2023-04-15T14:01:03.186Z,2.70
2023-04-15T14:03:32.070Z,2.72
2023-04-15T14:05:59.593Z,2.67
2023-04-15T14:08:26.470Z,2.60
2023-04-15T14:10:53.318Z,2.63
2023-04-15T14:13:20.130Z,2.33
2023-04-15T14:15:47.401Z,2.60
2023-04-15T14:18:14.716Z,2.47
2023-04-15T14:20:41.618Z,2.80
2023-04-15T14:23:08.537Z,2.63
2023-04-15T14:25:35.693Z,2.85
2023-04-15T14:28:02.854Z,2.70
2023-04-15T14:30:32.748Z,2.70
2023-04-15T14:32:59.739Z,2.80
2023-04-15T14:35:28.963Z,2.87
2023-04-15T14:37:55.829Z,2.60
2023-04-15T14:40:23.094Z,2.63
2023-04-15T14:42:50.087Z,2.70
2023-04-15T14:45:16.957Z,2.78
2023-04-15T14:47:44.200Z,2.30
2023-04-15T14:50:11.172Z,2.80
2023-04-15T14:52:38.026Z,2.45
2023-04-15T14:55:09.804Z,2.05
2023-04-15T14:57:37.909Z,2.38
2023-04-15T15:00:06.108Z,2.20
2023-04-15T15:02:39.119Z,2.95
2023-04-15T15:05:08.096Z,3.00
2023-04-15T15:07:35.440Z,2.70
2023-04-15T15:10:02.488Z,2.50
2023-04-15T15:12:29.392Z,2.97
2023-04-15T15:14:59.439Z,2.45
2023-04-15T15:17:26.694Z,2.80
2023-04-15T15:19:53.509Z,2.72
2023-04-15T15:22:21.462Z,3.03
2023-04-15T15:24:48.582Z,2.80
2023-04-15T15:27:15.469Z,2.90
2023-04-15T15:29:42.350Z,4.63
2023-04-15T15:32:09.225Z,2.72
2023-04-15T15:34:36.183Z,2.50
2023-04-15T15:37:03.162Z,2.70
2023-04-15T15:39:30.051Z,2.13
2023-04-15T15:41:56.851Z,2.30
2023-04-15T15:44:23.830Z,2.80
2023-04-15T15:46:50.967Z,2.60
2023-04-15T15:49:18.131Z,2.60
2023-04-15T15:51:45.080Z,2.65
2023-04-15T15:54:11.872Z,2.80
2023-04-15T15:56:38.682Z,2.20
2023-04-15T15:59:05.852Z,2.40
2023-04-15T16:01:32.944Z,2.43
2023-04-15T16:03:59.959Z,2.83
2023-04-15T16:06:26.894Z,2.70
2023-04-15T16:08:53.761Z,2.85
2023-04-15T16:11:20.630Z,3.28
2023-04-15T16:13:47.521Z,3.00
2023-04-15T16:16:14.480Z,2.95
2023-04-15T16:18:41.369Z,3.55
2023-04-15T16:21:09.132Z,3.75
2023-04-15T16:23:37.002Z,2.97
2023-04-15T16:26:03.889Z,3.00
2023-04-15T16:28:30.886Z,2.78
2023-04-15T16:30:57.702Z,3.20
2023-04-15T16:33:29.703Z,3.38
2023-04-15T16:35:56.601Z,3.17
2023-04-15T16:38:23.382Z,4.40
2023-04-15T16:40:50.250Z,4.20
2023-04-15T16:43:17.242Z,5.32
2023-04-15T16:45:44.124Z,5.32
2023-04-15T16:48:11.001Z,8.13
2023-04-15T16:50:37.948Z,7.70
2023-04-15T16:53:04.788Z,6.25
2023-04-15T16:55:31.676Z,4.82
2023-04-15T16:58:03.313Z,4.68
2023-04-15T17:00:32.091Z,4.80
2023-04-15T17:03:00.440Z,5.10
2023-04-15T17:05:27.771Z,5.18
2023-04-15T17:07:55.383Z,6.38
2023-04-15T17:10:23.037Z,6.70
2023-04-15T17:12:49.900Z,6.22
2023-04-15T17:15:16.781Z,5.40
2023-04-15T17:17:43.716Z,4.38
2023-04-15T17:20:11.494Z,4.32
2023-04-15T17:22:38.523Z,3.85
2023-04-15T17:25:06.169Z,3.50
2023-04-15T17:27:33.130Z,3.90
2023-04-15T17:29:59.964Z,3.80
2023-04-15T17:32:26.940Z,3.40
2023-04-15T17:34:53.832Z,3.50
2023-04-15T17:37:20.728Z,6.55
2023-04-15T17:39:47.597Z,4.33
2023-04-15T17:42:14.484Z,4.88
2023-04-15T17:44:41.486Z,4.13
2023-04-15T17:47:08.505Z,4.00
2023-04-15T17:49:35.424Z,4.32
2023-04-15T17:52:02.594Z,8.57
2023-04-15T17:54:29.501Z,5.80
2023-04-15T17:56:57.202Z,5.20
2023-04-15T17:59:24.406Z,4.35
2023-04-15T18:01:51.503Z,4.32
2023-04-15T18:04:18.336Z,3.30
2023-04-15T18:06:45.478Z,3.00
2023-04-15T18:09:12.443Z,4.55
2023-04-15T18:11:39.280Z,3.42
2023-04-15T18:14:06.635Z,3.10
2023-04-15T18:16:33.994Z,6.90
2023-04-15T18:19:00.997Z,3.47
2023-04-15T18:21:27.897Z,2.40
2023-04-15T18:23:54.905Z,3.47
2023-04-15T18:26:21.763Z,3.95
2023-04-15T18:28:48.756Z,3.17
2023-04-15T18:31:15.874Z,3.60
2023-04-15T18:33:42.705Z,3.10
2023-04-15T18:36:10.440Z,3.08
2023-04-15T18:38:37.552Z,3.53
2023-04-15T18:41:04.542Z,2.80
2023-04-15T18:43:31.849Z,2.80
2023-04-15T18:46:00.054Z,3.42
2023-04-15T18:48:27.262Z,2.80
2023-04-15T18:50:54.328Z,4.00
2023-04-15T18:53:21.783Z,3.10
2023-04-15T18:55:48.832Z,3.10
2023-04-15T18:58:15.806Z,3.10
2023-04-15T19:00:43.113Z,2.60
2023-04-15T19:03:10.698Z,2.80
2023-04-15T19:05:37.596Z,2.93
2023-04-15T19:08:04.619Z,2.60
2023-04-15T19:10:31.569Z,3.30
2023-04-15T19:12:58.412Z,3.03
2023-04-15T19:15:25.300Z,3.22
2023-04-15T19:17:52.112Z,3.60
2023-04-15T19:20:19.010Z,4.63
2023-04-15T19:22:46.349Z,4.53
2023-04-15T19:25:13.392Z,4.88
2023-04-15T19:27:40.265Z,5.20
2023-04-15T19:30:08.197Z,5.27
2023-04-15T19:32:35.890Z,5.18
2023-04-15T19:35:02.805Z,4.93
2023-04-15T19:37:32.678Z,5.18
2023-04-15T19:39:59.622Z,4.93
2023-04-15T19:42:26.700Z,4.17
2023-04-15T19:44:53.589Z,4.22
2023-04-15T19:47:20.596Z,5.40
2023-04-15T19:49:47.448Z,4.70
2023-04-15T19:52:14.397Z,4.63
2023-04-15T19:54:44.373Z,4.13
2023-04-15T19:57:11.322Z,3.72
2023-04-15T19:59:38.238Z,3.60
2023-04-15T20:02:05.335Z,4.20
2023-04-15T20:04:35.027Z,3.97
2023-04-15T20:07:01.931Z,3.50
2023-04-15T20:09:28.758Z,3.60
2023-04-15T20:12:47.866Z,4.25
2023-04-15T20:14:42.514Z,4.03
2023-04-15T20:17:09.706Z,3.45
2023-04-15T20:19:36.550Z,3.83
2023-04-15T20:22:03.422Z,3.67
2023-04-15T20:24:30.234Z,4.70
2023-04-15T20:26:57.042Z,4.43
2023-04-15T20:29:23.880Z,5.63
2023-04-15T20:31:50.741Z,4.90
2023-04-15T20:34:17.587Z,5.13
2023-04-15T20:36:44.525Z,5.53
2023-04-15T20:39:11.366Z,6.00
2023-04-15T20:41:38.974Z,8.13
2023-04-15T20:44:08.769Z,7.50
2023-04-15T20:46:35.613Z,8.07
2023-04-15T20:49:02.509Z,11.15
2023-04-15T20:51:29.441Z,10.90
2023-04-15T20:53:56.300Z,10.20
2023-04-15T20:56:23.147Z,8.50
2023-04-15T20:58:50.082Z,8.07
2023-04-15T21:01:16.968Z,7.50
2023-04-15T21:03:43.931Z,8.23
2023-04-15T21:06:10.900Z,7.95
2023-04-15T21:08:37.681Z,7.40
2023-04-15T21:11:04.500Z,7.07
2023-04-15T21:13:31.484Z,6.75
2023-04-15T21:15:58.343Z,9.70
2023-04-15T21:18:25.163Z,10.07
2023-04-15T21:20:59.652Z,8.77
2023-04-15T21:23:27.927Z,6.68
2023-04-15T21:25:54.833Z,6.50
2023-04-15T21:28:22.186Z,4.13
2023-04-15T21:30:49.609Z,3.33
2023-04-15T21:33:16.565Z,4.23
2023-04-15T21:35:43.454Z,4.28
2023-04-15T21:38:10.226Z,3.70
2023-04-15T21:40:37.080Z,3.70
2023-04-15T21:43:03.981Z,3.78
2023-04-15T21:45:31.019Z,5.53
2023-04-15T21:48:07.462Z,17.73
2023-04-15T21:50:39.143Z,21.75
2023-04-15T21:53:08.591Z,20.20
2023-04-15T21:55:36.000Z,14.15
2023-04-15T21:58:02.901Z,9.87
2023-04-15T22:00:30.185Z,5.35
2023-04-15T22:02:57.289Z,4.57
2023-04-15T22:05:25.557Z,4.65
2023-04-15T22:07:52.395Z,5.55
2023-04-15T22:10:19.405Z,18.27
2023-04-15T22:12:46.276Z,16.60
2023-04-15T22:15:13.139Z,7.15
2023-04-15T22:17:40.149Z,7.20
2023-04-15T22:20:07.870Z,7.70
2023-04-15T22:22:43.940Z,5.63
2023-04-15T22:25:11.864Z,5.47
2023-04-15T22:27:38.813Z,5.50
2023-04-15T22:30:06.394Z,5.50
2023-04-15T22:32:33.366Z,5.88
2023-04-15T22:35:02.399Z,8.57
2023-04-15T22:37:29.355Z,7.65
2023-04-15T22:39:56.815Z,17.48
2023-04-15T22:42:23.860Z,25.35
2023-04-15T22:44:51.325Z,37.55
2023-04-15T22:47:18.879Z,23.03
2023-04-15T22:49:45.658Z,11.23
2023-04-15T22:52:20.144Z,6.25
2023-04-15T22:54:54.458Z,5.72
2023-04-15T22:57:21.326Z,6.43
2023-04-15T22:59:48.216Z,6.23
2023-04-15T23:02:15.246Z,5.85
2023-04-15T23:04:42.306Z,5.32
2023-04-15T23:07:09.165Z,5.97
2023-04-15T23:09:36.010Z,4.93
2023-04-15T23:12:03.233Z,5.00
2023-04-15T23:14:30.643Z,5.63
2023-04-15T23:16:58.280Z,5.18
2023-04-15T23:19:25.210Z,6.18
2023-04-15T23:21:52.078Z,5.13
2023-04-15T23:24:19.036Z,4.47
2023-04-15T23:26:45.869Z,4.22
2023-04-15T23:29:12.725Z,5.45
2023-04-15T23:31:39.925Z,4.55
2023-04-15T23:34:06.728Z,4.57
2023-04-15T23:36:33.625Z,5.07
2023-04-15T23:39:00.521Z,5.75
2023-04-15T23:41:27.491Z,5.03
2023-04-15T23:43:54.422Z,5.90
2023-04-15T23:46:21.353Z,5.40
2023-04-15T23:48:48.281Z,4.87
2023-04-15T23:51:15.215Z,4.90
2023-04-15T23:53:42.145Z,5.07
2023-04-15T23:56:08.992Z,4.28
2023-04-15T23:58:35.864Z,4.60
